createdAt,value
2023-03-29T00:00:11.683Z,98750.34
2023-03-29T00:02:47.443Z,98757.09
2023-03-29T00:05:25.774Z,98765.16
2023-03-29T00:08:00.125Z,98767.92
2023-03-29T00:10:35.893Z,98763.92
2023-03-29T00:13:09.320Z,98768.75
2023-03-29T00:15:43.882Z,98774.52
2023-03-29T00:18:16.760Z,98778.25
2023-03-29T00:21:01.019Z,98775.09
2023-03-29T00:23:33.520Z,98773.79
2023-03-29T00:26:08.310Z,98779.39
2023-03-29T00:28:42.146Z,98785.23
2023-03-29T00:31:17.883Z,98797.02
2023-03-29T00:33:50.781Z,98794.92
2023-03-29T00:36:24.401Z,98794.80
2023-03-29T00:38:58.535Z,98796.09
2023-03-29T00:41:32.256Z,98799.09
2023-03-29T00:44:06.728Z,98803.81
2023-03-29T00:46:38.754Z,98803.50
2023-03-29T00:49:16.266Z,98808.36
2023-03-29T00:51:49.619Z,98806.66
2023-03-29T00:54:25.249Z,98820.05
2023-03-29T00:56:58.475Z,98817.20
2023-03-29T00:59:35.097Z,98810.98
2023-03-29T01:02:09.215Z,98807.73
2023-03-29T01:05:04.158Z,98803.69
2023-03-29T01:07:50.736Z,98808.33
2023-03-29T01:10:41.103Z,98804.66
2023-03-29T01:13:18.935Z,98801.60
2023-03-29T01:15:53.406Z,98807.12
2023-03-29T01:18:26.441Z,98819.24
2023-03-29T01:21:05.289Z,98814.05
2023-03-29T01:24:10.241Z,98815.19
2023-03-29T01:27:11.105Z,98821.58
2023-03-29T01:29:54.521Z,98819.83
2023-03-29T01:32:36.582Z,98815.27
2023-03-29T01:35:19.762Z,98816.41
2023-03-29T01:38:00.175Z,98824.42
2023-03-29T01:40:35.226Z,98821.09
2023-03-29T01:43:31.833Z,98827.31
2023-03-29T01:46:34.096Z,98830.64
2023-03-29T01:49:17.851Z,98838.33
2023-03-29T01:52:01.578Z,98833.70
2023-03-29T01:54:41.928Z,98842.72
2023-03-29T01:57:15.786Z,98847.41
2023-03-29T01:59:49.005Z,98849.53
2023-03-29T02:02:23.490Z,98848.57
2023-03-29T02:04:56.320Z,98842.80
2023-03-29T02:07:31.932Z,98834.53
2023-03-29T02:10:05.531Z,98840.13
2023-03-29T02:12:40.335Z,98840.30
2023-03-29T02:15:19.019Z,98836.99
2023-03-29T02:17:53.319Z,98836.99
2023-03-29T02:20:34.024Z,98832.27
2023-03-29T02:23:21.661Z,98841.84
2023-03-29T02:25:57.229Z,98834.87
2023-03-29T02:28:32.104Z,98833.79
2023-03-29T02:31:25.255Z,98833.16
2023-03-29T02:34:33.283Z,98832.66
2023-03-29T02:37:15.508Z,98842.33
2023-03-29T02:39:51.637Z,98841.03
2023-03-29T02:42:23.809Z,98850.67
2023-03-29T02:44:59.160Z,98847.67
2023-03-29T02:47:42.442Z,98851.88
2023-03-29T02:50:16.072Z,98854.21
2023-03-29T02:52:59.297Z,98865.27
2023-03-29T02:55:34.309Z,98864.74
2023-03-29T02:58:08.964Z,98859.32
2023-03-29T03:00:49.462Z,98842.66
2023-03-29T03:03:23.599Z,98842.66
2023-03-29T03:05:57.277Z,98841.04
2023-03-29T03:08:30.409Z,98854.90
2023-03-29T03:11:03.907Z,98852.14
2023-03-29T03:13:37.321Z,98857.86
2023-03-29T03:16:11.294Z,98854.33
2023-03-29T03:18:46.552Z,98864.13
2023-03-29T03:21:21.088Z,98864.97
2023-03-29T03:23:54.586Z,98866.70
2023-03-29T03:26:29.844Z,98869.20
2023-03-29T03:29:02.949Z,98873.81
2023-03-29T03:31:55.246Z,98872.96
2023-03-29T03:34:36.138Z,98874.58
2023-03-29T03:37:09.065Z,98881.34
2023-03-29T03:39:43.662Z,98887.75
2023-03-29T03:42:16.603Z,98882.58
2023-03-29T03:44:52.100Z,98896.44
2023-03-29T03:47:40.466Z,98893.08
2023-03-29T03:50:21.422Z,98903.06
2023-03-29T03:52:54.331Z,98905.50
2023-03-29T03:55:29.909Z,98913.48
2023-03-29T03:58:08.346Z,98910.22
2023-03-29T04:00:42.064Z,98925.22
2023-03-29T04:03:21.981Z,98914.41
2023-03-29T04:05:55.885Z,98918.29
2023-03-29T04:08:30.577Z,98915.29
2023-03-29T04:11:08.705Z,98915.83
2023-03-29T04:13:43.202Z,98920.37
2023-03-29T04:16:33.352Z,98919.48
2023-03-29T04:19:09.226Z,98920.88
2023-03-29T04:21:44.721Z,98934.87
2023-03-29T04:24:18.302Z,98927.81
2023-03-29T04:26:53.595Z,98926.52
2023-03-29T04:29:28.695Z,98929.19
2023-03-29T04:32:03.949Z,98927.34
2023-03-29T04:34:41.806Z,98933.80
2023-03-29T04:37:18.422Z,98928.44
2023-03-29T04:39:52.795Z,98934.49
2023-03-29T04:42:26.513Z,98925.54
2023-03-29T04:45:01.377Z,98923.65
2023-03-29T04:47:36.783Z,98933.20
2023-03-29T04:50:12.197Z,98934.40
2023-03-29T04:52:47.164Z,98935.60
2023-03-29T04:55:20.189Z,98938.22
2023-03-29T04:57:55.832Z,98937.34
2023-03-29T05:00:31.658Z,98943.48
2023-03-29T05:03:10.270Z,98937.58
2023-03-29T05:05:44.813Z,98939.94
2023-03-29T05:08:18.315Z,98947.98
2023-03-29T05:11:13.881Z,98944.29
2023-03-29T05:13:47.105Z,98955.42
2023-03-29T05:16:21.033Z,98954.41
2023-03-29T05:18:55.647Z,98958.47
2023-03-29T05:21:30.576Z,98959.35
2023-03-29T05:24:05.863Z,98969.97
2023-03-29T05:26:56.785Z,98978.37
2023-03-29T05:29:29.991Z,98977.86
2023-03-29T05:32:04.634Z,98990.80
2023-03-29T05:34:39.510Z,98989.81
2023-03-29T05:37:13.694Z,98993.70
2023-03-29T05:39:49.935Z,99009.72
2023-03-29T05:42:25.613Z,99005.30
2023-03-29T05:45:03.250Z,99002.02
2023-03-29T05:47:37.253Z,98996.44
2023-03-29T05:50:12.021Z,98998.09
2023-03-29T05:52:46.384Z,98993.20
2023-03-29T05:55:19.667Z,98996.67
2023-03-29T05:57:53.554Z,99002.25
2023-03-29T06:00:29.711Z,98994.81
2023-03-29T06:03:17.688Z,98997.08
2023-03-29T06:05:41.706Z,98997.88
2023-03-29T06:08:15.992Z,98995.19
2023-03-29T06:11:02.463Z,98996.39
2023-03-29T06:13:55.821Z,98994.81
2023-03-29T06:16:29.508Z,98994.50
2023-03-29T06:19:03.008Z,98986.04
2023-03-29T06:21:37.565Z,98979.95
2023-03-29T06:24:13.792Z,98982.72
2023-03-29T06:26:49.152Z,98993.57
2023-03-29T06:29:22.386Z,99003.09
2023-03-29T06:31:57.613Z,99004.58
2023-03-29T06:34:44.839Z,98999.30
2023-03-29T06:37:23.694Z,98994.78
2023-03-29T06:39:58.330Z,99007.72
2023-03-29T06:42:34.086Z,99018.70
2023-03-29T06:45:29.441Z,99024.66
2023-03-29T06:48:04.633Z,99035.39
2023-03-29T06:50:37.543Z,99046.71
2023-03-29T06:53:15.998Z,99052.80
2023-03-29T06:55:52.822Z,99053.41
2023-03-29T06:58:28.244Z,99064.86
2023-03-29T07:01:04.570Z,99058.80
2023-03-29T07:03:41.555Z,99051.23
2023-03-29T07:06:17.135Z,99058.03
2023-03-29T07:08:52.749Z,99057.52
2023-03-29T07:11:37.744Z,99066.77
2023-03-29T07:14:16.029Z,99071.02
2023-03-29T07:16:49.892Z,99072.55
2023-03-29T07:19:26.614Z,99069.12
2023-03-29T07:22:10.280Z,99073.97
2023-03-29T07:24:50.956Z,99090.05
2023-03-29T07:27:24.184Z,99086.17
2023-03-29T07:29:58.377Z,99090.05
2023-03-29T07:32:34.313Z,99102.50
2023-03-29T07:35:10.496Z,99094.13
2023-03-29T07:37:44.750Z,99089.65
2023-03-29T07:40:22.095Z,99104.39
2023-03-29T07:43:06.064Z,99081.00
2023-03-29T07:48:50.350Z,99081.83
2023-03-29T07:51:23.567Z,99090.52
2023-03-29T07:54:02.466Z,99106.05
2023-03-29T07:56:52.424Z,99117.73
2023-03-29T07:59:27.790Z,99122.91
2023-03-29T08:02:02.951Z,99119.97
2023-03-29T08:04:41.492Z,99118.83
2023-03-29T08:07:21.657Z,99114.66
2023-03-29T08:10:14.005Z,99113.27
2023-03-29T08:13:08.565Z,99098.11
2023-03-29T08:16:00.787Z,99103.80
2023-03-29T08:18:38.648Z,99097.74
2023-03-29T08:21:15.153Z,99103.15
2023-03-29T08:23:49.900Z,99107.39
2023-03-29T08:26:27.660Z,99110.48
2023-03-29T08:29:00.974Z,99105.85
2023-03-29T08:31:34.639Z,99104.89
2023-03-29T08:34:08.297Z,99114.88
2023-03-29T08:36:53.454Z,99124.68
2023-03-29T08:39:29.437Z,99124.91
2023-03-29T08:42:49.661Z,99122.67
2023-03-29T08:45:40.452Z,99126.36
2023-03-29T08:48:28.947Z,99130.84
2023-03-29T08:51:10.187Z,99138.41
2023-03-29T08:53:58.014Z,99142.39
2023-03-29T08:56:35.891Z,99144.06
2023-03-29T08:59:31.621Z,99149.11
2023-03-29T09:02:10.281Z,99133.88
2023-03-29T09:04:44.049Z,99143.81
2023-03-29T09:07:30.513Z,99139.64
2023-03-29T09:10:04.182Z,99137.53
2023-03-29T09:13:02.939Z,99140.94
2023-03-29T09:15:47.476Z,99140.40
2023-03-29T09:18:50.000Z,99149.42
2023-03-29T09:21:33.701Z,99155.98
2023-03-29T09:24:29.841Z,99152.64
2023-03-29T09:27:17.131Z,99163.19
2023-03-29T09:30:26.352Z,99168.05
2023-03-29T09:33:21.957Z,99169.47
2023-03-29T09:36:10.273Z,99182.44
2023-03-29T09:38:48.143Z,99176.54
2023-03-29T09:41:32.088Z,99179.19
2023-03-29T09:46:56.253Z,99200.66
2023-03-29T09:49:36.062Z,99186.23
2023-03-29T09:52:13.937Z,99187.94
2023-03-29T09:54:52.003Z,99201.95
2023-03-29T09:57:44.565Z,99207.84
2023-03-29T10:00:21.097Z,99209.92
2023-03-29T10:02:58.018Z,99211.78
2023-03-29T10:05:38.317Z,99203.22
2023-03-29T10:08:37.938Z,99210.60
2023-03-29T10:11:24.945Z,99210.32
2023-03-29T10:14:02.528Z,99213.70
2023-03-29T10:16:48.040Z,99208.05
2023-03-29T10:19:35.664Z,99217.08
2023-03-29T10:22:19.429Z,99207.28
2023-03-29T10:24:55.144Z,99213.72
2023-03-29T10:27:30.427Z,99218.21
2023-03-29T10:30:12.152Z,99216.83
2023-03-29T10:32:46.598Z,99215.53
2023-03-29T10:35:33.623Z,99219.00
2023-03-29T10:38:10.483Z,99227.88
2023-03-29T10:40:49.972Z,99224.88
2023-03-29T10:43:26.853Z,99236.99
2023-03-29T10:46:12.598Z,99235.74
2023-03-29T10:48:49.398Z,99239.54
2023-03-29T10:51:22.590Z,99241.06
2023-03-29T10:53:56.378Z,99250.09
2023-03-29T10:56:38.735Z,99256.30
2023-03-29T10:59:32.959Z,99257.35
2023-03-29T11:02:22.101Z,99253.00
2023-03-29T11:05:27.719Z,99256.19
2023-03-29T11:08:31.777Z,99256.47
2023-03-29T11:11:17.670Z,99260.63
2023-03-29T11:14:00.044Z,99263.47
2023-03-29T11:16:58.894Z,99259.81
2023-03-29T11:19:55.056Z,99251.19
2023-03-29T11:22:44.377Z,99272.43
2023-03-29T11:25:53.691Z,99275.53
2023-03-29T11:28:49.580Z,99272.00
2023-03-29T11:31:44.286Z,99267.63
2023-03-29T11:34:52.992Z,99275.63
2023-03-29T11:37:39.230Z,99290.69
2023-03-29T11:40:44.754Z,99285.91
2023-03-29T11:43:37.488Z,99283.41
2023-03-29T11:46:23.696Z,99280.53
2023-03-29T11:49:22.121Z,99269.22
2023-03-29T11:52:36.036Z,99273.01
2023-03-29T11:55:28.779Z,99275.70
2023-03-29T11:58:26.212Z,99276.89
2023-03-29T12:01:09.487Z,99283.46
2023-03-29T12:03:52.377Z,99291.42
2023-03-29T12:06:32.922Z,99278.69
2023-03-29T12:09:36.031Z,99276.98
2023-03-29T12:12:31.980Z,99286.24
2023-03-29T12:15:25.308Z,99286.24
2023-03-29T12:18:24.831Z,99284.97
2023-03-29T12:21:01.682Z,99298.91
2023-03-29T12:23:37.721Z,99305.17
2023-03-29T12:26:31.064Z,99298.89
2023-03-29T12:29:14.438Z,99300.28
2023-03-29T12:32:26.649Z,99313.34
2023-03-29T12:35:30.566Z,99314.13
2023-03-29T12:38:29.405Z,99314.14
2023-03-29T12:41:22.697Z,99330.27
2023-03-29T12:44:11.601Z,99330.78
2023-03-29T12:46:46.615Z,99333.55
2023-03-29T12:49:29.990Z,99337.33
2023-03-29T12:52:07.362Z,99334.36
2023-03-29T12:54:41.019Z,99333.86
2023-03-29T12:57:25.885Z,99333.45
2023-03-29T13:00:04.371Z,99341.73
2023-03-29T13:02:39.693Z,99346.08
2023-03-29T13:05:32.174Z,99340.63
2023-03-29T13:08:31.174Z,99345.59
2023-03-29T13:11:05.530Z,99343.80
2023-03-29T13:13:38.419Z,99348.39
2023-03-29T13:16:24.626Z,99350.68
2023-03-29T13:19:22.942Z,99349.08
2023-03-29T13:22:21.834Z,99359.63
2023-03-29T13:25:20.454Z,99349.36
2023-03-29T13:27:58.446Z,99355.92
2023-03-29T13:30:54.449Z,99356.23
2023-03-29T13:34:07.279Z,99355.14
2023-03-29T13:37:06.303Z,99357.52
2023-03-29T13:39:41.769Z,99359.33
2023-03-29T13:42:42.121Z,99366.98
2023-03-29T13:45:28.276Z,99366.48
2023-03-29T13:48:09.169Z,99366.84
2023-03-29T13:50:47.392Z,99374.80
2023-03-29T13:53:53.021Z,99383.84
2023-03-29T13:56:34.285Z,99370.41
2023-03-29T13:59:24.181Z,99386.70
2023-03-29T14:02:00.833Z,99385.02
2023-03-29T14:04:39.049Z,99404.09
2023-03-29T14:07:15.165Z,99405.45
2023-03-29T14:09:51.415Z,99408.23
2023-03-29T14:12:25.365Z,99402.28
2023-03-29T14:15:02.218Z,99401.09
2023-03-29T14:17:38.247Z,99404.58
2023-03-29T14:20:15.267Z,99412.75
2023-03-29T14:22:49.699Z,99405.88
2023-03-29T14:25:24.707Z,99412.08
2023-03-29T14:27:57.840Z,99413.95
2023-03-29T14:30:32.328Z,99416.54
2023-03-29T14:33:06.524Z,99417.14
2023-03-29T14:35:40.886Z,99422.98
2023-03-29T14:38:15.177Z,99413.73
2023-03-29T14:40:48.565Z,99426.34
2023-03-29T14:43:24.442Z,99428.91
2023-03-29T14:45:56.986Z,99433.97
2023-03-29T14:48:32.901Z,99432.89
2023-03-29T14:51:06.894Z,99437.17
2023-03-29T14:53:40.987Z,99435.28
2023-03-29T14:56:15.871Z,99447.42
2023-03-29T14:58:50.551Z,99445.62
2023-03-29T15:01:27.131Z,99456.26
2023-03-29T15:04:07.692Z,99454.19
2023-03-29T15:06:46.999Z,99462.31
2023-03-29T15:09:24.294Z,99472.44
2023-03-29T15:11:58.921Z,99472.22
2023-03-29T15:14:35.081Z,99469.83
2023-03-29T15:17:43.180Z,99469.72
2023-03-29T15:20:11.574Z,99474.41
2023-03-29T15:23:02.130Z,99477.66
2023-03-29T15:25:37.825Z,99480.44
2023-03-29T15:28:31.357Z,99482.48
2023-03-29T15:31:13.545Z,99474.84
2023-03-29T15:33:47.551Z,99481.78
2023-03-29T15:36:20.536Z,99499.64
2023-03-29T15:38:53.482Z,99482.01
2023-03-29T15:41:27.648Z,99472.45
2023-03-29T15:44:00.879Z,99476.55
2023-03-29T15:46:34.264Z,99467.14
2023-03-29T15:49:07.677Z,99478.06
2023-03-29T15:51:41.950Z,99473.70
2023-03-29T15:54:15.304Z,99484.63
2023-03-29T15:57:04.749Z,99483.41
2023-03-29T15:59:39.587Z,99482.48
2023-03-29T16:02:17.079Z,99477.66
2023-03-29T16:04:50.295Z,99476.55
2023-03-29T16:07:23.386Z,99489.83
2023-03-29T16:09:56.405Z,99490.78
2023-03-29T16:12:29.238Z,99497.64
2023-03-29T16:15:02.578Z,99493.17
2023-03-29T16:17:36.436Z,99502.69
2023-03-29T16:20:13.839Z,99510.66
2023-03-29T16:22:51.598Z,99514.53
2023-03-29T16:25:25.329Z,99521.39
2023-03-29T16:27:58.792Z,99522.63
2023-03-29T16:30:32.225Z,99536.86
2023-03-29T16:33:07.444Z,99553.70
2023-03-29T16:35:42.255Z,99550.12
2023-03-29T16:38:15.549Z,99553.36
2023-03-29T16:40:48.885Z,99564.20
2023-03-29T16:43:22.457Z,99564.69
2023-03-29T16:45:55.944Z,99567.67
2023-03-29T16:48:28.903Z,99591.30
2023-03-29T16:51:02.522Z,99584.33
2023-03-29T16:53:36.537Z,99593.77
2023-03-29T16:56:11.106Z,99591.19
2023-03-29T16:58:45.386Z,99606.79
2023-03-29T17:01:19.893Z,99601.62
2023-03-29T17:03:53.342Z,99604.58
2023-03-29T17:06:27.077Z,99609.48
2023-03-29T17:09:00.980Z,99603.28
2023-03-29T17:11:34.010Z,99614.19
2023-03-29T17:14:07.487Z,99617.94
2023-03-29T17:16:41.080Z,99622.46
2023-03-29T17:19:15.021Z,99620.94
2023-03-29T17:21:48.626Z,99621.76
2023-03-29T17:24:22.544Z,99621.80
2023-03-29T17:26:55.652Z,99624.39
2023-03-29T17:29:28.753Z,99631.12
2023-03-29T17:32:02.373Z,99613.88
2023-03-29T17:34:35.890Z,99615.80
2023-03-29T17:37:10.275Z,99618.27
2023-03-29T17:39:43.538Z,99614.28
2023-03-29T17:42:17.608Z,99618.16
2023-03-29T17:44:51.745Z,99623.77
2023-03-29T17:47:25.263Z,99619.78
2023-03-29T17:49:58.232Z,99615.11
2023-03-29T17:52:31.245Z,99612.93
2023-03-29T17:55:06.340Z,99611.23
2023-03-29T17:57:41.036Z,99608.01
2023-03-29T18:00:16.080Z,99606.59
2023-03-29T18:02:49.591Z,99607.66
2023-03-29T18:05:23.378Z,99598.63
2023-03-29T18:07:57.571Z,99607.16
2023-03-29T18:10:31.260Z,99595.57
2023-03-29T18:13:04.368Z,99596.63
2023-03-29T18:15:37.848Z,99608.91
2023-03-29T18:18:11.978Z,99599.77
2023-03-29T18:20:47.184Z,99595.66
2023-03-29T18:23:20.694Z,99602.10
2023-03-29T18:25:55.519Z,99601.18
2023-03-29T18:28:28.692Z,99590.91
2023-03-29T18:31:01.854Z,99590.02
2023-03-29T18:33:36.074Z,99593.20
2023-03-29T18:36:13.279Z,99595.02
2023-03-29T18:38:46.109Z,99601.18
2023-03-29T18:41:19.199Z,99599.00
2023-03-29T18:43:52.691Z,99595.53
2023-03-29T18:46:26.251Z,99586.03
2023-03-29T18:49:03.101Z,99584.75
2023-03-29T18:51:37.223Z,99605.37
2023-03-29T18:54:10.449Z,99592.48
2023-03-29T18:56:44.910Z,99594.41
2023-03-29T18:59:18.436Z,99599.52
2023-03-29T19:01:51.348Z,99618.19
2023-03-29T19:04:26.808Z,99603.11
2023-03-29T19:07:01.620Z,99612.02
2023-03-29T19:09:36.130Z,99603.16
2023-03-29T19:12:09.481Z,99608.47
2023-03-29T19:14:42.755Z,99608.34
2023-03-29T19:17:16.698Z,99623.17
2023-03-29T19:19:50.310Z,99620.76
2023-03-29T19:22:23.649Z,99611.73
2023-03-29T19:24:56.901Z,99614.80
2023-03-29T19:27:30.899Z,99624.98
2023-03-29T19:30:04.732Z,99627.69
2023-03-29T19:32:38.495Z,99632.96
2023-03-29T19:35:13.823Z,99622.89
2023-03-29T19:37:47.444Z,99624.19
2023-03-29T19:40:21.386Z,99630.75
2023-03-29T19:42:55.499Z,99636.43
2023-03-29T19:45:28.739Z,99638.64
2023-03-29T19:48:03.751Z,99631.84
2023-03-29T19:50:43.205Z,99635.70
2023-03-29T19:53:16.975Z,99648.59
2023-03-29T19:55:50.179Z,99661.20
2023-03-29T19:58:24.013Z,99662.12
2023-03-29T20:00:59.422Z,99659.03
2023-03-29T20:03:34.502Z,99667.77
2023-03-29T20:06:08.648Z,99672.28
2023-03-29T20:08:41.893Z,99666.08
2023-03-29T20:11:16.601Z,99657.18
2023-03-29T20:13:49.009Z,99648.55
2023-03-29T20:16:23.600Z,99652.95
2023-03-29T20:18:57.480Z,99636.99
2023-03-29T20:21:33.544Z,99641.38
2023-03-29T20:24:08.997Z,99637.80
2023-03-29T20:26:42.162Z,99651.20
2023-03-29T20:29:18.158Z,99636.63
2023-03-29T20:31:52.423Z,99642.91
2023-03-29T20:34:25.810Z,99628.13
2023-03-29T20:37:00.408Z,99627.88
2023-03-29T20:39:34.091Z,99626.35
2023-03-29T20:42:07.487Z,99631.11
2023-03-29T20:44:40.602Z,99634.84
2023-03-29T20:47:14.460Z,99627.80
2023-03-29T20:49:47.382Z,99626.39
2023-03-29T20:52:22.384Z,99625.98
2023-03-29T20:54:55.418Z,99615.83
2023-03-29T20:57:30.389Z,99626.66
2023-03-29T21:00:05.407Z,99618.81
2023-03-29T21:02:39.729Z,99614.42
2023-03-29T21:05:12.152Z,99624.61
2023-03-29T21:07:45.144Z,99616.88
2023-03-29T21:10:19.238Z,99630.00
2023-03-29T21:12:55.514Z,99638.78
2023-03-29T21:15:30.952Z,99623.20
2023-03-29T21:18:05.648Z,99630.41
2023-03-29T21:20:39.333Z,99628.72
2023-03-29T21:23:12.348Z,99638.38
2023-03-29T21:25:45.263Z,99645.98
2023-03-29T21:28:18.259Z,99645.72
2023-03-29T21:30:51.514Z,99651.79
2023-03-29T21:33:25.032Z,99645.22
2023-03-29T21:35:57.786Z,99650.87
2023-03-29T21:38:31.142Z,99658.23
2023-03-29T21:41:04.356Z,99659.64
2023-03-29T21:43:37.405Z,99664.16
2023-03-29T21:46:10.810Z,99655.41
2023-03-29T21:48:44.168Z,99653.88
2023-03-29T21:51:17.132Z,99645.74
2023-03-29T21:53:50.410Z,99646.27
2023-03-29T21:56:23.464Z,99644.58
2023-03-29T21:58:56.254Z,99654.48
2023-03-29T22:01:30.353Z,99631.97
2023-03-29T22:04:04.562Z,99650.65
2023-03-29T22:06:38.081Z,99633.78
2023-03-29T22:09:11.618Z,99633.53
2023-03-29T22:11:45.162Z,99630.19
2023-03-29T22:14:19.718Z,99640.62
2023-03-29T22:16:53.149Z,99642.80
2023-03-29T22:19:26.219Z,99643.32
2023-03-29T22:22:01.870Z,99644.88
2023-03-29T22:24:35.972Z,99646.05
2023-03-29T22:27:09.664Z,99652.49
2023-03-29T22:29:42.535Z,99649.11
2023-03-29T22:32:15.941Z,99642.83
2023-03-29T22:34:49.434Z,99646.41
2023-03-29T22:37:23.014Z,99637.03
2023-03-29T22:39:56.056Z,99651.20
2023-03-29T22:42:29.520Z,99659.70
2023-03-29T22:45:02.497Z,99663.69
2023-03-29T22:47:36.773Z,99663.81
2023-03-29T22:50:10.995Z,99673.31
2023-03-29T22:52:44.242Z,99692.16
2023-03-29T22:55:17.592Z,99680.95
2023-03-29T22:57:51.262Z,99680.69
2023-03-29T23:00:24.800Z,99690.72
2023-03-29T23:02:58.193Z,99691.61
2023-03-29T23:05:31.215Z,99682.86
2023-03-29T23:08:04.298Z,99688.56
2023-03-29T23:10:37.755Z,99697.31
2023-03-29T23:13:13.248Z,99698.72
2023-03-29T23:15:49.674Z,99693.42
2023-03-29T23:18:24.510Z,99682.71
2023-03-29T23:21:00.629Z,99705.66
2023-03-29T23:23:34.566Z,99701.81
2023-03-29T23:26:12.222Z,99702.86
2023-03-29T23:28:45.226Z,99711.58
2023-03-29T23:31:18.909Z,99709.66
2023-03-29T23:33:53.328Z,99697.66
2023-03-29T23:36:27.968Z,99693.77
2023-03-29T23:39:02.216Z,99700.85
2023-03-29T23:41:35.388Z,99696.73
2023-03-29T23:44:08.978Z,99693.91
2023-03-29T23:46:42.309Z,99701.77
2023-03-29T23:49:15.371Z,99697.91
2023-03-29T23:51:50.920Z,99696.34
2023-03-29T23:54:24.248Z,99688.48
2023-03-29T23:56:58.269Z,99689.13
2023-03-29T23:59:33.046Z,99696.47
